Time;durP1;ratioP1;P1;durP2;ratioP2;P2;SDS_P1;SDS_P2;PMS_P1;PMS_P2;Temp;Humidity;BMP_temperature;BMP_pressure;BME280_temperature;BME280_humidity;BME280_pressure;Samples;Min_cycle;Max_cycle;Signal;HPM_P1;HPM_P2
2021/05/17 00:04:38;;;;;;;4.68;0.95;;;;;;;10.77;100.00;99174.19;20740270;28;20067;-69
2021/05/17 00:14:41;;;;;;;5.85;1.25;;;;;;;10.83;100.00;99171.09;20747083;28;20097;-69
2021/05/17 00:24:43;;;;;;;3.30;0.95;;;;;;;10.80;100.00;99166.94;20801598;28;20121;-71
2021/05/17 00:34:46;;;;;;;3.58;0.85;;;;;;;10.66;100.00;99178.44;20739123;28;20042;-70
2021/05/17 00:44:48;;;;;;;2.92;0.95;;;;;;;10.70;100.00;99184.25;20757836;28;20146;-69
2021/05/17 00:54:50;;;;;;;3.85;1.00;;;;;;;10.64;100.00;99177.69;20819432;28;20057;-69
2021/05/17 01:04:52;;;;;;;2.38;0.70;;;;;;;10.56;100.00;99169.59;20736226;28;20559;-69
2021/05/17 01:14:58;;;;;;;3.20;0.80;;;;;;;10.65;100.00;99174.13;20750664;28;20491;-69
2021/05/17 01:25:00;;;;;;;2.92;0.82;;;;;;;10.63;100.00;99169.94;20821283;28;20096;-69
2021/05/17 01:35:03;;;;;;;5.57;0.85;;;;;;;10.61;100.00;99183.16;20733532;28;20057;-70
2021/05/17 01:45:07;;;;;;;2.70;0.77;;;;;;;10.60;100.00;99175.44;20743234;28;20051;-69
2021/05/17 01:55:11;;;;;;;4.97;0.98;;;;;;;10.56;100.00;99184.47;20778202;28;20460;-69
2021/05/17 02:05:14;;;;;;;4.00;0.90;;;;;;;10.54;100.00;99199.41;20623884;28;20528;-70
2021/05/17 02:15:17;;;;;;;2.97;0.75;;;;;;;10.55;100.00;99194.09;20734683;28;20051;-70
2021/05/17 02:25:19;;;;;;;4.88;1.05;;;;;;;10.63;100.00;99196.97;20412238;28;20494;-70
2021/05/17 02:35:22;;;;;;;4.82;1.10;;;;;;;10.58;100.00;99198.25;20600554;28;20072;-70
2021/05/17 02:45:25;;;;;;;3.65;1.10;;;;;;;10.57;100.00;99191.34;20732319;28;20388;-71
2021/05/17 02:55:30;;;;;;;3.10;1.08;;;;;;;10.48;100.00;99197.25;20823616;28;20127;-69
2021/05/17 03:05:39;;;;;;;3.63;1.30;;;;;;;10.45;100.00;99202.72;20726554;28;20037;-69
2021/05/17 03:15:43;;;;;;;3.42;0.80;;;;;;;10.35;100.00;99217.41;20729387;28;20045;-69
2021/05/17 03:25:48;;;;;;;2.88;1.05;;;;;;;10.36;100.00;99219.91;20822119;28;20487;-69
2021/05/17 03:35:50;;;;;;;4.32;1.10;;;;;;;10.15;100.00;99234.50;20721494;28;20049;-69
2021/05/17 03:45:52;;;;;;;2.78;0.80;;;;;;;10.07;100.00;99240.25;20727596;28;20045;-69
2021/05/17 03:55:54;;;;;;;3.67;1.08;;;;;;;10.03;100.00;99233.56;20768568;28;20121;-70
2021/05/17 04:16:19;;;;;;;6.72;1.30;;;;;;;10.07;100.00;99248.09;20725846;28;20115;-70
2021/05/17 04:26:21;;;;;;;8.20;1.25;;;;;;;10.08;100.00;99262.84;20818674;28;20054;-70
2021/05/17 04:36:23;;;;;;;5.85;1.65;;;;;;;9.99;100.00;99266.09;20720727;28;20045;-70
2021/05/17 04:46:25;;;;;;;6.93;2.22;;;;;;;10.48;100.00;99268.72;20723567;28;20053;-70
2021/05/17 04:56:31;;;;;;;5.72;1.20;;;;;;;10.46;100.00;99278.47;20813588;28;20095;-70
2021/05/17 05:06:33;;;;;;;4.05;1.60;;;;;;;10.57;100.00;99294.22;20551993;28;20499;-70
2021/05/17 05:16:35;;;;;;;5.68;0.80;;;;;;;10.59;100.00;99300.19;20533952;28;20049;-70
2021/05/17 05:26:50;;;;;;;3.35;0.70;;;;;;;10.71;100.00;99308.94;20831411;28;20054;-70
2021/05/17 05:36:53;;;;;;;3.33;0.70;;;;;;;10.49;99.53;99321.88;20733441;28;20042;-70
2021/05/17 05:46:55;;;;;;;2.95;0.60;;;;;;;10.53;98.09;99320.72;20736380;28;20088;-70
2021/05/17 05:56:56;;;;;;;4.78;0.80;;;;;;;10.73;98.56;99322.75;20825523;28;20095;-69
2021/05/17 06:06:59;;;;;;;3.05;0.80;;;;;;;11.07;93.33;99332.41;20682490;28;20064;-70
2021/05/17 06:17:02;;;;;;;2.80;0.50;;;;;;;11.24;91.70;99351.31;20734267;28;20390;-69
2021/05/17 06:27:05;;;;;;;5.93;0.85;;;;;;;11.29;92.16;99367.53;20826772;28;20056;-69
2021/05/17 06:37:07;;;;;;;4.68;0.77;;;;;;;11.49;89.59;99372.97;20728139;28;20123;-70
2021/05/17 06:47:11;;;;;;;2.95;0.47;;;;;;;11.83;89.17;99379.19;20729673;28;20486;-70
2021/05/17 06:57:20;;;;;;;2.58;0.50;;;;;;;12.34;83.23;99397.13;20826013;28;20049;-70
2021/05/17 07:17:44;;;;;;;3.15;0.70;;;;;;;12.04;86.20;99412.59;20555942;28;20057;-70
2021/05/17 07:27:46;;;;;;;2.72;0.57;;;;;;;11.85;88.20;99427.09;20484760;28;20048;-70
2021/05/17 07:37:48;;;;;;;5.97;0.80;;;;;;;11.89;90.94;99428.50;20473879;28;20105;-69
2021/05/17 07:47:50;;;;;;;2.95;0.50;;;;;;;11.46;93.41;99430.00;20467033;28;20097;-69
2021/05/17 07:57:52;;;;;;;2.28;0.60;;;;;;;11.75;92.37;99428.72;20466662;28;20097;-69
2021/05/17 08:07:54;;;;;;;3.67;0.80;;;;;;;12.32;93.97;99426.09;20477628;28;20427;-69
2021/05/17 08:17:56;;;;;;;3.05;0.80;;;;;;;12.37;93.55;99421.34;20471631;28;20069;-70
2021/05/17 08:27:58;;;;;;;6.15;0.90;;;;;;;12.19;95.77;99430.59;20478928;28;20047;-70
2021/05/17 08:38:00;;;;;;;2.85;1.10;;;;;;;12.33;97.81;99434.81;20730734;28;20049;-69
2021/05/17 08:48:02;;;;;;;5.75;1.20;;;;;;;11.81;99.35;99448.41;20804866;28;20393;-69
2021/05/17 08:58:04;;;;;;;4.82;0.88;;;;;;;10.97;100.00;99454.47;20831616;28;20045;-69
2021/05/17 09:08:06;;;;;;;2.03;0.63;;;;;;;10.68;100.00;99440.00;20525575;28;20113;-69
2021/05/17 09:18:11;;;;;;;2.40;0.47;;;;;;;10.60;100.00;99471.09;20432015;28;20486;-69
2021/05/17 09:28:13;;;;;;;2.78;0.70;;;;;;;10.35;100.00;99447.56;20483241;28;20491;-69
2021/05/17 09:38:24;;;;;;;3.08;0.70;;;;;;;10.51;100.00;99442.97;20437691;28;20047;-69
2021/05/17 09:48:29;;;;;;;4.18;0.40;;;;;;;10.69;100.00;99460.00;20414405;29;20490;-69
2021/05/17 09:58:31;;;;;;;2.23;0.50;;;;;;;11.03;100.00;99455.84;20430578;29;20526;-70
2021/05/17 10:08:33;;;;;;;3.45;0.52;;;;;;;12.10;100.00;99460.16;20499593;28;20407;-70
2021/05/17 10:18:38;;;;;;;2.20;1.20;;;;;;;13.24;94.70;99443.38;20491316;28;20043;-70
2021/05/17 10:28:48;;;;;;;6.13;0.90;;;;;;;14.02;94.58;99435.13;20480032;28;20040;-71
2021/05/17 10:38:51;;;;;;;4.43;0.90;;;;;;;15.05;84.41;99439.41;20494244;28;20138;-70
2021/05/17 10:49:26;;;;;;;4.53;1.05;;;;;;;14.77;83.82;99443.63;20521019;28;20434;-71
2021/05/17 11:10:12;;;;;;;5.13;0.98;;;;;;;15.19;80.13;99444.28;20488068;28;20340;-71
2021/05/17 11:20:42;;;;;;;3.67;0.77;;;;;;;14.55;85.11;99434.09;20519562;28;20177;-70
2021/05/17 11:30:45;;;;;;;6.20;1.50;;;;;;;13.89;86.36;99440.59;20462749;28;20138;-70
2021/05/17 11:40:50;;;;;;;4.45;0.80;;;;;;;13.19;94.51;99450.78;20528290;28;20441;-71
2021/05/17 11:50:52;;;;;;;3.15;0.70;;;;;;;12.35;98.00;99490.63;20480803;28;20107;-68
2021/05/17 12:01:21;;;;;;;2.15;0.73;;;;;;;13.30;97.84;99474.44;20507589;28;20046;-71
2021/05/17 12:11:23;;;;;;;3.15;0.70;;;;;;;14.11;93.25;99465.97;20512009;28;20051;-71
2021/05/17 12:21:31;;;;;;;4.22;0.68;;;;;;;14.10;92.41;99474.81;20531457;28;20502;-71
2021/05/17 12:31:33;;;;;;;4.00;0.73;;;;;;;13.59;94.71;99479.94;20531857;28;20456;-70
2021/05/17 12:41:38;;;;;;;2.72;0.52;;;;;;;14.30;88.74;99494.22;20522962;28;20047;-70
2021/05/17 12:51:39;;;;;;;4.87;0.70;;;;;;;14.13;85.86;99490.34;20501255;28;20079;-71
2021/05/17 13:01:42;;;;;;;1.67;0.30;;;;;;;14.59;86.01;99475.97;20516135;28;20116;-71
2021/05/17 13:11:43;;;;;;;1.23;0.60;;;;;;;15.08;82.90;99469.94;20521432;28;20047;-71
2021/05/17 13:32:09;;;;;;;3.53;0.60;;;;;;;12.45;100.00;99523.09;20529063;28;20043;-69
2021/05/17 13:42:12;;;;;;;2.08;0.75;;;;;;;12.80;98.39;99513.34;20537935;28;20051;-68
2021/05/17 13:52:14;;;;;;;3.78;0.80;;;;;;;13.91;96.35;99516.78;20512363;28;20107;-69
2021/05/17 14:02:16;;;;;;;4.80;1.40;;;;;;;14.16;98.13;99498.00;20532613;28;20043;-69
2021/05/17 14:12:18;;;;;;;4.00;1.30;;;;;;;14.73;93.38;99510.69;20540515;28;20050;-69
2021/05/17 14:22:20;;;;;;;1.02;0.45;;;;;;;14.65;89.79;99522.84;20535444;28;20112;-69
2021/05/17 14:32:22;;;;;;;5.25;0.75;;;;;;;15.03;85.17;99530.97;20503728;28;20094;-69
2021/05/17 14:42:23;;;;;;;2.60;0.55;;;;;;;14.52;82.79;99525.72;20550001;28;20496;-70
2021/05/17 14:52:29;;;;;;;1.88;0.52;;;;;;;13.68;91.49;99543.16;20554410;28;20104;-69
2021/05/17 15:02:31;;;;;;;1.13;0.30;;;;;;;14.19;93.49;99554.81;20504097;28;20487;-69
2021/05/17 15:12:32;;;;;;;1.25;0.70;;;;;;;14.81;86.90;99560.94;20519206;28;20456;-69
2021/05/17 15:22:36;;;;;;;1.48;0.50;;;;;;;14.39;86.74;99573.28;20519283;28;20457;-69
2021/05/17 15:32:38;;;;;;;1.65;0.52;;;;;;;14.97;82.73;99576.28;20520872;28;20465;-70
2021/05/17 15:42:47;;;;;;;3.80;0.70;;;;;;;14.96;82.20;99583.34;20530020;28;20071;-69
2021/05/17 15:52:49;;;;;;;2.22;0.90;;;;;;;14.95;80.35;99589.59;20508425;28;20047;-70
2021/05/17 16:02:52;;;;;;;2.40;0.63;;;;;;;14.52;80.92;99604.72;20493124;28;20077;-70
2021/05/17 16:13:03;;;;;;;3.72;0.80;;;;;;;14.28;79.88;99602.25;20430603;28;20054;-70
2021/05/17 16:23:05;;;;;;;1.40;0.40;;;;;;;14.03;81.83;99610.47;20426572;28;20113;-70
2021/05/17 16:33:07;;;;;;;1.48;0.40;;;;;;;13.58;79.04;99621.09;20432922;28;20058;-70
2021/05/17 16:43:09;;;;;;;1.55;0.40;;;;;;;13.27;82.96;99637.59;20456512;28;20188;-70
2021/05/17 16:53:11;;;;;;;1.33;0.40;;;;;;;13.15;85.52;99651.69;20433601;28;20062;-71
2021/05/17 17:03:13;;;;;;;5.10;0.70;;;;;;;13.09;91.27;99663.47;20466145;28;20120;-70
2021/05/17 17:13:15;;;;;;;3.47;1.52;;;;;;;12.99;94.20;99636.22;20527531;28;20088;-70
2021/05/17 17:23:17;;;;;;;2.58;0.50;;;;;;;12.72;94.83;99646.19;20515783;28;20457;-70
2021/05/17 17:33:18;;;;;;;2.25;0.65;;;;;;;12.74;93.98;99645.13;20475031;28;20089;-70
2021/05/17 17:43:22;;;;;;;2.67;0.70;;;;;;;12.63;95.17;99662.63;20559159;28;20100;-70
2021/05/17 17:53:25;;;;;;;4.07;0.90;;;;;;;12.53;97.17;99682.66;20536024;28;20043;-70
2021/05/17 18:03:26;;;;;;;7.25;0.90;;;;;;;11.05;98.69;99715.81;20514723;28;20555;-69
2021/05/17 18:13:29;;;;;;;2.30;0.68;;;;;;;10.62;99.45;99712.56;20522806;28;20047;-68
2021/05/17 18:23:31;;;;;;;6.47;0.93;;;;;;;10.84;100.00;99697.16;20541140;28;20104;-69
2021/05/17 18:33:37;;;;;;;4.72;0.80;;;;;;;10.55;100.00;99713.94;20529860;28;20051;-69
2021/05/17 18:43:44;;;;;;;1.02;0.40;;;;;;;10.70;100.00;99711.16;20518429;28;20051;-69
2021/05/17 18:53:46;;;;;;;1.10;0.28;;;;;;;10.59;100.00;99723.25;20493888;28;20047;-69
2021/05/17 19:03:48;;;;;;;2.67;0.38;;;;;;;10.41;100.00;99746.22;20548188;28;20055;-69
2021/05/17 19:13:51;;;;;;;3.60;1.15;;;;;;;10.47;100.00;99771.13;20539930;28;20054;-70
2021/05/17 19:23:53;;;;;;;4.97;0.80;;;;;;;10.51;100.00;99791.81;20501185;28;20078;-69
2021/05/17 19:33:57;;;;;;;5.25;1.52;;;;;;;10.45;100.00;99810.50;20530505;28;20514;-69
2021/05/17 19:43:59;;;;;;;4.00;1.50;;;;;;;10.51;100.00;99815.34;20553594;28;20050;-69
2021/05/17 19:54:03;;;;;;;1.65;0.68;;;;;;;10.35;100.00;99813.78;20505020;28;20046;-69
2021/05/17 20:04:05;;;;;;;3.53;1.30;;;;;;;10.42;100.00;99829.00;20529157;28;20050;-69
2021/05/17 20:14:07;;;;;;;4.13;1.52;;;;;;;10.43;100.00;99838.53;20513124;28;20557;-69
2021/05/17 20:24:08;;;;;;;3.53;1.08;;;;;;;10.45;100.00;99847.13;20524755;28;20494;-69
2021/05/17 20:44:37;;;;;;;10.55;2.38;;;;;;;10.39;100.00;99863.19;20536784;28;20084;-69
2021/05/17 20:54:39;;;;;;;6.20;1.42;;;;;;;10.35;100.00;99868.72;20496935;28;20051;-70
2021/05/17 21:04:42;;;;;;;2.35;1.10;;;;;;;10.32;100.00;99884.59;20538188;28;20093;-70
2021/05/17 21:14:43;;;;;;;2.28;1.00;;;;;;;10.27;100.00;99901.41;20553037;28;20108;-69
2021/05/17 21:24:45;;;;;;;3.47;1.15;;;;;;;10.21;100.00;99917.47;20531461;28;20467;-70
2021/05/17 21:34:47;;;;;;;4.95;1.20;;;;;;;10.10;100.00;99926.88;20547303;28;20101;-69
2021/05/17 21:44:49;;;;;;;4.15;1.15;;;;;;;10.11;100.00;99936.38;20539154;28;20051;-70
2021/05/17 21:54:51;;;;;;;5.75;1.00;;;;;;;9.95;100.00;99939.09;20514962;28;20477;-69
2021/05/17 22:04:53;;;;;;;5.03;1.13;;;;;;;9.99;100.00;99934.53;20534579;28;20077;-69
2021/05/17 22:14:55;;;;;;;2.63;0.95;;;;;;;9.92;100.00;99936.66;20506258;28;20058;-70
2021/05/17 22:24:56;;;;;;;2.88;1.13;;;;;;;9.88;100.00;99930.75;20522308;28;20054;-70
2021/05/17 22:34:59;;;;;;;3.97;1.17;;;;;;;10.04;100.00;99962.06;20543031;28;20573;-69
2021/05/17 22:45:01;;;;;;;4.80;1.50;;;;;;;9.88;100.00;99956.06;20639584;22;20447;-69
2021/05/17 22:55:05;;;;;;;3.65;1.20;;;;;;;9.94;100.00;99960.09;20906806;28;20052;-69
2021/05/17 23:05:08;;;;;;;2.40;0.90;;;;;;;9.86;100.00;99974.44;20855966;28;20195;-69
2021/05/17 23:15:10;;;;;;;2.38;1.00;;;;;;;9.86;100.00;99984.03;20824347;28;20045;-69
2021/05/17 23:35:33;;;;;;;5.93;1.77;;;;;;;10.09;100.00;99983.56;20881650;28;20111;-69
2021/05/17 23:45:35;;;;;;;6.75;2.20;;;;;;;10.05;100.00;99984.69;20867888;28;20504;-69
2021/05/17 23:55:38;;;;;;;5.13;1.98;;;;;;;10.01;100.00;99985.78;20870250;28;20073;-69
